sensor_id;sensor_type;location;lat;lon;timestamp;P1;durP1;ratioP1;P2;durP2;ratioP2
52432;SDS011;38352;53.244;6.594;2023-04-01T00:00:58;15.18;;;9.35;;
52432;SDS011;38352;53.244;6.594;2023-04-01T00:03:26;16.35;;;8.20;;
52432;SDS011;38352;53.244;6.594;2023-04-01T00:05:53;13.38;;;8.00;;
52432;SDS011;38352;53.244;6.594;2023-04-01T00:08:19;13.82;;;8.75;;
52432;SDS011;38352;53.244;6.594;2023-04-01T00:10:46;14.30;;;8.43;;
52432;SDS011;38352;53.244;6.594;2023-04-01T00:13:12;15.35;;;8.70;;
52432;SDS011;38352;53.244;6.594;2023-04-01T00:15:38;15.32;;;8.55;;
52432;SDS011;38352;53.244;6.594;2023-04-01T00:18:04;13.80;;;8.35;;
52432;SDS011;38352;53.244;6.594;2023-04-01T00:20:31;13.70;;;8.48;;
52432;SDS011;38352;53.244;6.594;2023-04-01T00:22:57;15.23;;;8.80;;
52432;SDS011;38352;53.244;6.594;2023-04-01T00:25:23;17.27;;;8.70;;
52432;SDS011;38352;53.244;6.594;2023-04-01T00:27:50;14.00;;;8.07;;
52432;SDS011;38352;53.244;6.594;2023-04-01T00:30:16;17.42;;;8.65;;
52432;SDS011;38352;53.244;6.594;2023-04-01T00:32:42;15.10;;;8.60;;
52432;SDS011;38352;53.244;6.594;2023-04-01T00:35:09;16.65;;;8.45;;
52432;SDS011;38352;53.244;6.594;2023-04-01T00:37:35;15.27;;;8.55;;
52432;SDS011;38352;53.244;6.594;2023-04-01T00:40:02;16.35;;;8.63;;
52432;SDS011;38352;53.244;6.594;2023-04-01T00:42:29;14.60;;;8.70;;
52432;SDS011;38352;53.244;6.594;2023-04-01T00:44:55;15.98;;;9.50;;
52432;SDS011;38352;53.244;6.594;2023-04-01T00:47:22;14.82;;;8.43;;
52432;SDS011;38352;53.244;6.594;2023-04-01T00:49:49;16.88;;;8.90;;
52432;SDS011;38352;53.244;6.594;2023-04-01T00:52:20;12.70;;;8.52;;
52432;SDS011;38352;53.244;6.594;2023-04-01T00:54:48;14.43;;;7.82;;
52432;SDS011;38352;53.244;6.594;2023-04-01T00:57:25;13.60;;;8.68;;
52432;SDS011;38352;53.244;6.594;2023-04-01T00:59:53;13.73;;;8.65;;
52432;SDS011;38352;53.244;6.594;2023-04-01T01:02:19;14.55;;;8.20;;
52432;SDS011;38352;53.244;6.594;2023-04-01T01:04:46;14.35;;;8.27;;
52432;SDS011;38352;53.244;6.594;2023-04-01T01:10:20;15.25;;;8.35;;
52432;SDS011;38352;53.244;6.594;2023-04-01T01:27:22;13.85;;;8.60;;
52432;SDS011;38352;53.244;6.594;2023-04-01T01:32:37;16.83;;;8.88;;
52432;SDS011;38352;53.244;6.594;2023-04-01T01:37:30;16.30;;;9.10;;
52432;SDS011;38352;53.244;6.594;2023-04-01T01:40:07;16.90;;;8.95;;
52432;SDS011;38352;53.244;6.594;2023-04-01T01:42:36;14.20;;;9.32;;
52432;SDS011;38352;53.244;6.594;2023-04-01T01:45:04;16.05;;;9.57;;
52432;SDS011;38352;53.244;6.594;2023-04-01T01:47:31;12.65;;;8.40;;
52432;SDS011;38352;53.244;6.594;2023-04-01T01:49:57;17.02;;;9.98;;
52432;SDS011;38352;53.244;6.594;2023-04-01T01:52:27;14.88;;;9.38;;
52432;SDS011;38352;53.244;6.594;2023-04-01T01:54:54;16.10;;;9.32;;
52432;SDS011;38352;53.244;6.594;2023-04-01T01:57:23;18.65;;;9.65;;
52432;SDS011;38352;53.244;6.594;2023-04-01T01:59:50;14.70;;;8.68;;
52432;SDS011;38352;53.244;6.594;2023-04-01T02:02:18;15.15;;;9.10;;
52432;SDS011;38352;53.244;6.594;2023-04-01T02:04:44;14.95;;;9.50;;
52432;SDS011;38352;53.244;6.594;2023-04-01T02:07:21;18.17;;;9.82;;
52432;SDS011;38352;53.244;6.594;2023-04-01T02:09:49;16.02;;;9.63;;
52432;SDS011;38352;53.244;6.594;2023-04-01T02:12:15;17.83;;;9.90;;
52432;SDS011;38352;53.244;6.594;2023-04-01T02:14:43;17.65;;;9.70;;
52432;SDS011;38352;53.244;6.594;2023-04-01T02:17:18;17.70;;;10.45;;
52432;SDS011;38352;53.244;6.594;2023-04-01T02:19:58;24.45;;;11.68;;
52432;SDS011;38352;53.244;6.594;2023-04-01T02:22:29;16.25;;;10.13;;
52432;SDS011;38352;53.244;6.594;2023-04-01T02:24:58;21.65;;;11.05;;
52432;SDS011;38352;53.244;6.594;2023-04-01T02:27:25;19.20;;;10.77;;
52432;SDS011;38352;53.244;6.594;2023-04-01T02:29:51;23.85;;;12.05;;
52432;SDS011;38352;53.244;6.594;2023-04-01T02:32:18;19.80;;;11.50;;
52432;SDS011;38352;53.244;6.594;2023-04-01T02:34:45;18.88;;;11.05;;
52432;SDS011;38352;53.244;6.594;2023-04-01T02:37:11;21.80;;;10.65;;
52432;SDS011;38352;53.244;6.594;2023-04-01T02:39:38;19.35;;;10.60;;
52432;SDS011;38352;53.244;6.594;2023-04-01T02:42:04;18.33;;;10.35;;
52432;SDS011;38352;53.244;6.594;2023-04-01T02:44:31;19.58;;;10.93;;
52432;SDS011;38352;53.244;6.594;2023-04-01T02:46:57;20.40;;;11.05;;
52432;SDS011;38352;53.244;6.594;2023-04-01T02:49:23;20.52;;;11.02;;
52432;SDS011;38352;53.244;6.594;2023-04-01T02:51:49;21.85;;;10.98;;
52432;SDS011;38352;53.244;6.594;2023-04-01T02:54:16;22.90;;;12.38;;
52432;SDS011;38352;53.244;6.594;2023-04-01T02:56:43;21.95;;;11.30;;
52432;SDS011;38352;53.244;6.594;2023-04-01T02:59:09;21.30;;;11.73;;
52432;SDS011;38352;53.244;6.594;2023-04-01T03:01:35;21.70;;;12.10;;
52432;SDS011;38352;53.244;6.594;2023-04-01T03:04:01;22.55;;;12.45;;
52432;SDS011;38352;53.244;6.594;2023-04-01T03:06:27;22.40;;;11.63;;
52432;SDS011;38352;53.244;6.594;2023-04-01T03:08:53;22.17;;;12.27;;
52432;SDS011;38352;53.244;6.594;2023-04-01T03:11:19;27.02;;;14.75;;
52432;SDS011;38352;53.244;6.594;2023-04-01T03:13:46;25.63;;;15.63;;
52432;SDS011;38352;53.244;6.594;2023-04-01T03:16:12;25.90;;;13.82;;
52432;SDS011;38352;53.244;6.594;2023-04-01T03:18:38;28.20;;;14.60;;
52432;SDS011;38352;53.244;6.594;2023-04-01T03:21:18;28.42;;;15.43;;
52432;SDS011;38352;53.244;6.594;2023-04-01T03:23:44;28.27;;;14.75;;
52432;SDS011;38352;53.244;6.594;2023-04-01T03:26:10;27.63;;;13.52;;
52432;SDS011;38352;53.244;6.594;2023-04-01T03:28:37;25.67;;;15.55;;
52432;SDS011;38352;53.244;6.594;2023-04-01T03:31:03;27.17;;;14.73;;
52432;SDS011;38352;53.244;6.594;2023-04-01T03:33:30;29.05;;;13.55;;
52432;SDS011;38352;53.244;6.594;2023-04-01T03:35:56;29.67;;;15.50;;
52432;SDS011;38352;53.244;6.594;2023-04-01T03:38:22;26.08;;;14.48;;
52432;SDS011;38352;53.244;6.594;2023-04-01T03:40:48;27.40;;;14.68;;
52432;SDS011;38352;53.244;6.594;2023-04-01T03:43:14;27.17;;;14.95;;
52432;SDS011;38352;53.244;6.594;2023-04-01T03:45:48;25.98;;;13.73;;
52432;SDS011;38352;53.244;6.594;2023-04-01T03:48:14;26.25;;;14.02;;
52432;SDS011;38352;53.244;6.594;2023-04-01T03:50:40;27.23;;;13.68;;
52432;SDS011;38352;53.244;6.594;2023-04-01T03:53:07;27.88;;;15.63;;
52432;SDS011;38352;53.244;6.594;2023-04-01T03:55:33;24.63;;;13.38;;
52432;SDS011;38352;53.244;6.594;2023-04-01T03:57:59;23.27;;;13.15;;
52432;SDS011;38352;53.244;6.594;2023-04-01T04:00:27;24.55;;;14.68;;
52432;SDS011;38352;53.244;6.594;2023-04-01T04:02:53;27.08;;;13.95;;
52432;SDS011;38352;53.244;6.594;2023-04-01T04:05:20;26.52;;;14.23;;
52432;SDS011;38352;53.244;6.594;2023-04-01T04:07:46;24.48;;;14.40;;
52432;SDS011;38352;53.244;6.594;2023-04-01T04:10:12;26.85;;;15.07;;
52432;SDS011;38352;53.244;6.594;2023-04-01T04:12:38;29.33;;;15.68;;
52432;SDS011;38352;53.244;6.594;2023-04-01T04:15:05;29.15;;;14.63;;
52432;SDS011;38352;53.244;6.594;2023-04-01T04:17:32;26.05;;;13.85;;
52432;SDS011;38352;53.244;6.594;2023-04-01T04:19:58;27.63;;;14.73;;
52432;SDS011;38352;53.244;6.594;2023-04-01T04:22:24;25.63;;;14.05;;
52432;SDS011;38352;53.244;6.594;2023-04-01T04:24:50;29.70;;;15.30;;
52432;SDS011;38352;53.244;6.594;2023-04-01T04:27:16;30.63;;;15.35;;
52432;SDS011;38352;53.244;6.594;2023-04-01T04:29:42;28.98;;;14.68;;
52432;SDS011;38352;53.244;6.594;2023-04-01T04:32:08;25.73;;;14.18;;
52432;SDS011;38352;53.244;6.594;2023-04-01T04:34:35;30.33;;;16.17;;
52432;SDS011;38352;53.244;6.594;2023-04-01T04:37:01;26.88;;;14.95;;
52432;SDS011;38352;53.244;6.594;2023-04-01T04:39:27;32.67;;;16.45;;
52432;SDS011;38352;53.244;6.594;2023-04-01T04:41:53;25.98;;;15.35;;
52432;SDS011;38352;53.244;6.594;2023-04-01T04:44:19;26.60;;;15.18;;
52432;SDS011;38352;53.244;6.594;2023-04-01T04:46:45;29.52;;;15.77;;
52432;SDS011;38352;53.244;6.594;2023-04-01T04:49:12;26.52;;;14.88;;
52432;SDS011;38352;53.244;6.594;2023-04-01T04:51:38;28.92;;;15.63;;
52432;SDS011;38352;53.244;6.594;2023-04-01T04:54:05;27.10;;;14.15;;
52432;SDS011;38352;53.244;6.594;2023-04-01T04:56:31;30.90;;;16.77;;
52432;SDS011;38352;53.244;6.594;2023-04-01T04:58:57;30.10;;;16.73;;
52432;SDS011;38352;53.244;6.594;2023-04-01T05:01:24;29.25;;;15.73;;
52432;SDS011;38352;53.244;6.594;2023-04-01T05:03:50;33.08;;;17.33;;
52432;SDS011;38352;53.244;6.594;2023-04-01T05:06:17;31.80;;;17.00;;
52432;SDS011;38352;53.244;6.594;2023-04-01T05:08:43;30.15;;;17.33;;
52432;SDS011;38352;53.244;6.594;2023-04-01T05:11:11;33.08;;;18.58;;
52432;SDS011;38352;53.244;6.594;2023-04-01T05:13:38;29.98;;;17.15;;
52432;SDS011;38352;53.244;6.594;2023-04-01T05:16:07;33.97;;;17.10;;
52432;SDS011;38352;53.244;6.594;2023-04-01T05:18:33;32.92;;;18.00;;
52432;SDS011;38352;53.244;6.594;2023-04-01T05:20:59;32.40;;;17.63;;
52432;SDS011;38352;53.244;6.594;2023-04-01T05:23:25;34.65;;;17.40;;
52432;SDS011;38352;53.244;6.594;2023-04-01T05:25:52;33.78;;;17.08;;
52432;SDS011;38352;53.244;6.594;2023-04-01T05:28:18;32.10;;;17.27;;
52432;SDS011;38352;53.244;6.594;2023-04-01T05:30:44;32.33;;;16.33;;
52432;SDS011;38352;53.244;6.594;2023-04-01T05:33:11;33.45;;;17.83;;
52432;SDS011;38352;53.244;6.594;2023-04-01T05:35:38;30.52;;;18.15;;
52432;SDS011;38352;53.244;6.594;2023-04-01T05:38:04;30.88;;;16.67;;
52432;SDS011;38352;53.244;6.594;2023-04-01T05:40:31;32.10;;;16.45;;
52432;SDS011;38352;53.244;6.594;2023-04-01T05:42:57;31.55;;;15.75;;
52432;SDS011;38352;53.244;6.594;2023-04-01T05:45:24;27.38;;;14.90;;
52432;SDS011;38352;53.244;6.594;2023-04-01T05:47:50;29.55;;;15.55;;
52432;SDS011;38352;53.244;6.594;2023-04-01T05:50:16;31.08;;;15.95;;
52432;SDS011;38352;53.244;6.594;2023-04-01T05:52:42;29.00;;;16.15;;
52432;SDS011;38352;53.244;6.594;2023-04-01T05:55:09;31.38;;;16.83;;
52432;SDS011;38352;53.244;6.594;2023-04-01T05:57:35;29.45;;;15.23;;
52432;SDS011;38352;53.244;6.594;2023-04-01T06:00:02;30.17;;;15.50;;
52432;SDS011;38352;53.244;6.594;2023-04-01T06:02:29;28.08;;;14.75;;
52432;SDS011;38352;53.244;6.594;2023-04-01T06:05:29;28.80;;;15.10;;
52432;SDS011;38352;53.244;6.594;2023-04-01T06:07:48;30.77;;;15.90;;
52432;SDS011;38352;53.244;6.594;2023-04-01T06:10:15;28.02;;;14.35;;
52432;SDS011;38352;53.244;6.594;2023-04-01T06:15:13;31.38;;;16.17;;
52432;SDS011;38352;53.244;6.594;2023-04-01T06:17:45;29.98;;;16.27;;
52432;SDS011;38352;53.244;6.594;2023-04-01T06:30:59;33.28;;;16.67;;
52432;SDS011;38352;53.244;6.594;2023-04-01T06:33:31;37.58;;;18.88;;
52432;SDS011;38352;53.244;6.594;2023-04-01T06:39:11;34.30;;;17.92;;
52432;SDS011;38352;53.244;6.594;2023-04-01T06:44:37;32.10;;;18.48;;
52432;SDS011;38352;53.244;6.594;2023-04-01T06:50:07;35.47;;;19.45;;
52432;SDS011;38352;53.244;6.594;2023-04-01T06:57:55;36.03;;;19.25;;
52432;SDS011;38352;53.244;6.594;2023-04-01T07:00:29;38.75;;;20.50;;
52432;SDS011;38352;53.244;6.594;2023-04-01T07:03:02;35.13;;;18.77;;
52432;SDS011;38352;53.244;6.594;2023-04-01T07:05:31;36.90;;;19.65;;
52432;SDS011;38352;53.244;6.594;2023-04-01T07:07:57;34.47;;;18.83;;
52432;SDS011;38352;53.244;6.594;2023-04-01T07:12:58;38.47;;;20.25;;
52432;SDS011;38352;53.244;6.594;2023-04-01T07:15:35;35.85;;;18.27;;
52432;SDS011;38352;53.244;6.594;2023-04-01T07:18:03;32.67;;;17.88;;
52432;SDS011;38352;53.244;6.594;2023-04-01T07:20:31;32.55;;;18.33;;
52432;SDS011;38352;53.244;6.594;2023-04-01T07:22:59;39.13;;;19.23;;
52432;SDS011;38352;53.244;6.594;2023-04-01T07:27:56;35.00;;;19.33;;
52432;SDS011;38352;53.244;6.594;2023-04-01T07:30:25;36.67;;;19.60;;
52432;SDS011;38352;53.244;6.594;2023-04-01T07:35:46;30.42;;;17.02;;
52432;SDS011;38352;53.244;6.594;2023-04-01T07:38:16;31.75;;;17.77;;
52432;SDS011;38352;53.244;6.594;2023-04-01T07:48:26;32.72;;;16.88;;
52432;SDS011;38352;53.244;6.594;2023-04-01T07:51:01;30.13;;;16.42;;
52432;SDS011;38352;53.244;6.594;2023-04-01T07:58:32;22.45;;;13.48;;
52432;SDS011;38352;53.244;6.594;2023-04-01T08:01:14;22.92;;;13.02;;
52432;SDS011;38352;53.244;6.594;2023-04-01T08:21:42;22.58;;;11.88;;
52432;SDS011;38352;53.244;6.594;2023-04-01T08:26:49;23.73;;;13.40;;
52432;SDS011;38352;53.244;6.594;2023-04-01T08:29:18;23.60;;;13.77;;
52432;SDS011;38352;53.244;6.594;2023-04-01T08:31:56;23.67;;;13.48;;
52432;SDS011;38352;53.244;6.594;2023-04-01T08:34:27;23.30;;;13.13;;
52432;SDS011;38352;53.244;6.594;2023-04-01T08:37:04;23.38;;;12.77;;
52432;SDS011;38352;53.244;6.594;2023-04-01T08:39:35;21.38;;;12.23;;
52432;SDS011;38352;53.244;6.594;2023-04-01T08:47:03;15.23;;;8.18;;
52432;SDS011;38352;53.244;6.594;2023-04-01T08:55:02;11.82;;;6.18;;
52432;SDS011;38352;53.244;6.594;2023-04-01T09:00:15;9.93;;;6.30;;
52432;SDS011;38352;53.244;6.594;2023-04-01T09:02:51;11.20;;;6.15;;
52432;SDS011;38352;53.244;6.594;2023-04-01T09:16:30;8.68;;;4.63;;
52432;SDS011;38352;53.244;6.594;2023-04-01T09:19:11;6.95;;;4.05;;
52432;SDS011;38352;53.244;6.594;2023-04-01T09:24:16;6.30;;;3.80;;
52432;SDS011;38352;53.244;6.594;2023-04-01T09:32:16;7.65;;;3.50;;
52432;SDS011;38352;53.244;6.594;2023-04-01T09:34:59;5.38;;;3.10;;
52432;SDS011;38352;53.244;6.594;2023-04-01T09:37:36;5.70;;;2.90;;
52432;SDS011;38352;53.244;6.594;2023-04-01T09:40:17;6.30;;;3.22;;
52432;SDS011;38352;53.244;6.594;2023-04-01T09:42:45;7.65;;;3.05;;
52432;SDS011;38352;53.244;6.594;2023-04-01T10:11:49;6.85;;;3.58;;
52432;SDS011;38352;53.244;6.594;2023-04-01T10:48:42;5.47;;;2.58;;
52432;SDS011;38352;53.244;6.594;2023-04-01T11:01:19;4.72;;;2.80;;
52432;SDS011;38352;53.244;6.594;2023-04-01T11:19:50;4.57;;;2.53;;
52432;SDS011;38352;53.244;6.594;2023-04-01T11:22:33;33.83;;;15.55;;
52432;SDS011;38352;53.244;6.594;2023-04-01T11:37:58;7.63;;;2.75;;
52432;SDS011;38352;53.244;6.594;2023-04-01T11:43:19;4.88;;;2.28;;
52432;SDS011;38352;53.244;6.594;2023-04-01T11:51:01;4.57;;;2.78;;
52432;SDS011;38352;53.244;6.594;2023-04-01T11:56:02;3.97;;;2.00;;
52432;SDS011;38352;53.244;6.594;2023-04-01T12:11:00;4.93;;;2.45;;
52432;SDS011;38352;53.244;6.594;2023-04-01T12:21:22;4.00;;;2.30;;
52432;SDS011;38352;53.244;6.594;2023-04-01T12:31:31;3.75;;;2.05;;
52432;SDS011;38352;53.244;6.594;2023-04-01T12:41:52;7.18;;;2.50;;
52432;SDS011;38352;53.244;6.594;2023-04-01T12:51:47;5.57;;;2.60;;
52432;SDS011;38352;53.244;6.594;2023-04-01T12:59:44;3.90;;;2.13;;
52432;SDS011;38352;53.244;6.594;2023-04-01T13:02:00;3.05;;;1.80;;
52432;SDS011;38352;53.244;6.594;2023-04-01T13:15:19;4.32;;;1.88;;
52432;SDS011;38352;53.244;6.594;2023-04-01T13:25:39;3.30;;;1.95;;
52432;SDS011;38352;53.244;6.594;2023-04-01T13:28:11;3.20;;;2.05;;
52432;SDS011;38352;53.244;6.594;2023-04-01T13:30:48;3.88;;;2.38;;
52432;SDS011;38352;53.244;6.594;2023-04-01T13:36:07;4.72;;;1.95;;
52432;SDS011;38352;53.244;6.594;2023-04-01T13:51:46;3.70;;;1.95;;
52432;SDS011;38352;53.244;6.594;2023-04-01T13:54:36;2.70;;;1.73;;
52432;SDS011;38352;53.244;6.594;2023-04-01T14:13:05;3.42;;;2.13;;
52432;SDS011;38352;53.244;6.594;2023-04-01T14:18:13;3.50;;;1.90;;
52432;SDS011;38352;53.244;6.594;2023-04-01T14:25:44;3.38;;;1.90;;
52432;SDS011;38352;53.244;6.594;2023-04-01T14:28:18;4.25;;;1.80;;
52432;SDS011;38352;53.244;6.594;2023-04-01T14:35:55;3.97;;;1.70;;
52432;SDS011;38352;53.244;6.594;2023-04-01T14:49:14;3.35;;;2.10;;
52432;SDS011;38352;53.244;6.594;2023-04-01T14:51:41;3.95;;;2.05;;
52432;SDS011;38352;53.244;6.594;2023-04-01T14:56:44;5.63;;;2.55;;
52432;SDS011;38352;53.244;6.594;2023-04-01T15:09:58;5.65;;;2.70;;
52432;SDS011;38352;53.244;6.594;2023-04-01T15:17:32;4.72;;;2.78;;
52432;SDS011;38352;53.244;6.594;2023-04-01T15:32:59;5.40;;;3.30;;
52432;SDS011;38352;53.244;6.594;2023-04-01T15:35:30;6.10;;;3.38;;
52432;SDS011;38352;53.244;6.594;2023-04-01T15:43:22;7.65;;;3.65;;
52432;SDS011;38352;53.244;6.594;2023-04-01T15:48:46;6.35;;;3.65;;
52432;SDS011;38352;53.244;6.594;2023-04-01T15:56:40;8.77;;;4.38;;
52432;SDS011;38352;53.244;6.594;2023-04-01T16:04:32;8.88;;;4.97;;
52432;SDS011;38352;53.244;6.594;2023-04-01T16:07:10;7.50;;;4.55;;
52432;SDS011;38352;53.244;6.594;2023-04-01T16:12:16;9.98;;;5.50;;
52432;SDS011;38352;53.244;6.594;2023-04-01T16:19:52;9.40;;;4.88;;
52432;SDS011;38352;53.244;6.594;2023-04-01T16:22:23;9.43;;;5.20;;
52432;SDS011;38352;53.244;6.594;2023-04-01T16:25:07;10.13;;;5.25;;
52432;SDS011;38352;53.244;6.594;2023-04-01T16:27:42;9.57;;;5.03;;
52432;SDS011;38352;53.244;6.594;2023-04-01T16:33:31;7.05;;;4.28;;
52432;SDS011;38352;53.244;6.594;2023-04-01T16:38:36;9.05;;;5.15;;
52432;SDS011;38352;53.244;6.594;2023-04-01T16:41:17;9.82;;;5.32;;
52432;SDS011;38352;53.244;6.594;2023-04-01T16:44:29;11.23;;;5.43;;
52432;SDS011;38352;53.244;6.594;2023-04-01T16:46:34;10.45;;;6.13;;
52432;SDS011;38352;53.244;6.594;2023-04-01T16:51:53;11.48;;;5.97;;
52432;SDS011;38352;53.244;6.594;2023-04-01T17:04:41;9.57;;;5.88;;
52432;SDS011;38352;53.244;6.594;2023-04-01T17:07:25;10.02;;;5.30;;
52432;SDS011;38352;53.244;6.594;2023-04-01T17:12:39;8.95;;;5.10;;
52432;SDS011;38352;53.244;6.594;2023-04-01T17:15:28;8.95;;;4.72;;
52432;SDS011;38352;53.244;6.594;2023-04-01T17:20:32;9.63;;;5.53;;
52432;SDS011;38352;53.244;6.594;2023-04-01T17:23:13;20.33;;;9.45;;
52432;SDS011;38352;53.244;6.594;2023-04-01T17:25:46;7.72;;;4.80;;
52432;SDS011;38352;53.244;6.594;2023-04-01T17:28:18;13.07;;;7.43;;
52432;SDS011;38352;53.244;6.594;2023-04-01T17:36:02;11.40;;;6.35;;
52432;SDS011;38352;53.244;6.594;2023-04-01T17:43:44;15.52;;;7.47;;
52432;SDS011;38352;53.244;6.594;2023-04-01T17:48:49;14.75;;;6.40;;
52432;SDS011;38352;53.244;6.594;2023-04-01T17:59:33;14.85;;;6.20;;
52432;SDS011;38352;53.244;6.594;2023-04-01T18:02:18;10.73;;;5.70;;
52432;SDS011;38352;53.244;6.594;2023-04-01T18:23:02;13.00;;;6.00;;
52432;SDS011;38352;53.244;6.594;2023-04-01T18:25:37;15.18;;;6.38;;
52432;SDS011;38352;53.244;6.594;2023-04-01T18:30:32;13.35;;;5.80;;
52432;SDS011;38352;53.244;6.594;2023-04-01T18:33:09;11.27;;;5.88;;
52432;SDS011;38352;53.244;6.594;2023-04-01T18:38:28;12.80;;;6.60;;
52432;SDS011;38352;53.244;6.594;2023-04-01T18:41:14;9.95;;;5.60;;
52432;SDS011;38352;53.244;6.594;2023-04-01T18:46:21;15.13;;;6.18;;
52432;SDS011;38352;53.244;6.594;2023-04-01T18:48:52;11.98;;;5.95;;
52432;SDS011;38352;53.244;6.594;2023-04-01T18:51:34;13.75;;;7.25;;
52432;SDS011;38352;53.244;6.594;2023-04-01T18:54:14;11.68;;;5.63;;
52432;SDS011;38352;53.244;6.594;2023-04-01T18:56:42;12.70;;;6.53;;
52432;SDS011;38352;53.244;6.594;2023-04-01T18:59:28;12.20;;;5.63;;
52432;SDS011;38352;53.244;6.594;2023-04-01T19:02:17;10.43;;;5.75;;
52432;SDS011;38352;53.244;6.594;2023-04-01T19:04:45;9.48;;;5.50;;
52432;SDS011;38352;53.244;6.594;2023-04-01T19:12:32;11.07;;;5.80;;
52432;SDS011;38352;53.244;6.594;2023-04-01T19:22:44;14.38;;;6.95;;
52432;SDS011;38352;53.244;6.594;2023-04-01T19:25:37;16.60;;;6.57;;
52432;SDS011;38352;53.244;6.594;2023-04-01T19:28:03;10.82;;;6.30;;
52432;SDS011;38352;53.244;6.594;2023-04-01T19:30:36;12.68;;;5.68;;
52432;SDS011;38352;53.244;6.594;2023-04-01T19:36:00;11.60;;;6.05;;
52432;SDS011;38352;53.244;6.594;2023-04-01T19:38:39;10.80;;;5.70;;
52432;SDS011;38352;53.244;6.594;2023-04-01T19:41:21;9.75;;;5.57;;
52432;SDS011;38352;53.244;6.594;2023-04-01T19:46:42;13.65;;;6.03;;
52432;SDS011;38352;53.244;6.594;2023-04-01T19:49:14;10.68;;;5.35;;
52432;SDS011;38352;53.244;6.594;2023-04-01T19:57:05;11.18;;;5.47;;
52432;SDS011;38352;53.244;6.594;2023-04-01T19:59:56;10.70;;;5.72;;
52432;SDS011;38352;53.244;6.594;2023-04-01T20:05:20;12.10;;;5.32;;
52432;SDS011;38352;53.244;6.594;2023-04-01T20:07:51;8.13;;;5.05;;
52432;SDS011;38352;53.244;6.594;2023-04-01T20:10:22;13.70;;;6.00;;
52432;SDS011;38352;53.244;6.594;2023-04-01T20:15:43;10.55;;;4.88;;
52432;SDS011;38352;53.244;6.594;2023-04-01T20:18:15;14.02;;;5.20;;
52432;SDS011;38352;53.244;6.594;2023-04-01T20:20:50;11.05;;;5.40;;
52432;SDS011;38352;53.244;6.594;2023-04-01T20:23:24;10.77;;;5.05;;
52432;SDS011;38352;53.244;6.594;2023-04-01T20:26:08;12.40;;;5.07;;
52432;SDS011;38352;53.244;6.594;2023-04-01T20:31:12;11.10;;;5.28;;
52432;SDS011;38352;53.244;6.594;2023-04-01T20:36:36;11.70;;;5.10;;
52432;SDS011;38352;53.244;6.594;2023-04-01T20:44:16;10.20;;;4.30;;
52432;SDS011;38352;53.244;6.594;2023-04-01T20:46:47;10.75;;;4.72;;
52432;SDS011;38352;53.244;6.594;2023-04-01T20:49:29;9.20;;;4.38;;
52432;SDS011;38352;53.244;6.594;2023-04-01T20:52:07;11.60;;;4.78;;
52432;SDS011;38352;53.244;6.594;2023-04-01T21:07:42;14.68;;;4.70;;
52432;SDS011;38352;53.244;6.594;2023-04-01T21:10:36;6.53;;;4.05;;
52432;SDS011;38352;53.244;6.594;2023-04-01T21:15:55;9.40;;;4.63;;
52432;SDS011;38352;53.244;6.594;2023-04-01T21:23:56;9.15;;;4.20;;
52432;SDS011;38352;53.244;6.594;2023-04-01T21:31:33;9.57;;;4.40;;
52432;SDS011;38352;53.244;6.594;2023-04-01T21:57:27;8.55;;;5.18;;
52432;SDS011;38352;53.244;6.594;2023-04-01T22:00:19;11.70;;;5.40;;
52432;SDS011;38352;53.244;6.594;2023-04-01T22:07:40;8.05;;;4.55;;
52432;SDS011;38352;53.244;6.594;2023-04-01T22:20:37;7.63;;;4.43;;
52432;SDS011;38352;53.244;6.594;2023-04-01T22:28:32;9.40;;;3.42;;
52432;SDS011;38352;53.244;6.594;2023-04-01T22:31:02;11.02;;;3.92;;
52432;SDS011;38352;53.244;6.594;2023-04-01T22:46:16;7.45;;;2.90;;
52432;SDS011;38352;53.244;6.594;2023-04-01T22:51:44;7.05;;;3.83;;
52432;SDS011;38352;53.244;6.594;2023-04-01T22:54:17;6.80;;;3.13;;
52432;SDS011;38352;53.244;6.594;2023-04-01T23:01:45;5.50;;;3.13;;
52432;SDS011;38352;53.244;6.594;2023-04-01T23:04:14;9.77;;;3.00;;
52432;SDS011;38352;53.244;6.594;2023-04-01T23:06:43;7.43;;;3.90;;
52432;SDS011;38352;53.244;6.594;2023-04-01T23:09:15;8.02;;;3.22;;
52432;SDS011;38352;53.244;6.594;2023-04-01T23:16:43;9.68;;;4.93;;
52432;SDS011;38352;53.244;6.594;2023-04-01T23:24:30;9.32;;;3.53;;
52432;SDS011;38352;53.244;6.594;2023-04-01T23:27:00;7.65;;;3.25;;
52432;SDS011;38352;53.244;6.594;2023-04-01T23:29:27;8.63;;;3.05;;
52432;SDS011;38352;53.244;6.594;2023-04-01T23:31:59;6.30;;;3.28;;
52432;SDS011;38352;53.244;6.594;2023-04-01T23:34:33;7.05;;;3.45;;
52432;SDS011;38352;53.244;6.594;2023-04-01T23:37:21;7.65;;;3.25;;
52432;SDS011;38352;53.244;6.594;2023-04-01T23:40:19;11.77;;;4.40;;
52432;SDS011;38352;53.244;6.594;2023-04-01T23:42:39;9.05;;;3.50;;
52432;SDS011;38352;53.244;6.594;2023-04-01T23:45:15;8.25;;;3.20;;
52432;SDS011;38352;53.244;6.594;2023-04-01T23:47:42;9.20;;;3.20;;
52432;SDS011;38352;53.244;6.594;2023-04-01T23:50:18;6.88;;;2.83;;
52432;SDS011;38352;53.244;6.594;2023-04-01T23:52:46;7.65;;;3.47;;
52432;SDS011;38352;53.244;6.594;2023-04-01T23:55:17;10.07;;;2.60;;
